Current Weather

San Antonio Intl

San Antonio, Texas (KSAT)

Report from: Monday, June 27, 2022 5:51 AM CDT
Current time: Monday, June 27, 2022 6:19 AM CDT

Nearby weather
Weather history
Weather forecast

Temperature25.6°C (78.1°F)
Dew point19.4°C (66.9°F)
Winds Calm
Visibility10 mi. (16.1 km)
Clouds Sky clear
Altimeter30.11 in.Hg (1020 mB)
Relative humidity69 %
Density altitude1,317 ft. (402 m)
Sea-level pressure101.8 kPa (1018 mB, 30.05 in.Hg)
Remarks Automated weather observing station with precipitation discriminator
Flight conditions Visual Meteorological Conditions
Raw dataKSAT 271051Z 00000KT 10SM CLR 26/19 A3011 RMK AO2 SLP176 T02560194
An error has occurred. This application may no longer respond until reloaded. Reload 🗙